createdAt,value
2023-06-29T00:00:45.810Z,12.68
2023-06-29T00:03:14.016Z,11.48
2023-06-29T00:05:43.409Z,14.10
2023-06-29T00:08:12.900Z,12.85
2023-06-29T00:10:41.326Z,12.90
2023-06-29T00:13:09.370Z,12.60
2023-06-29T00:15:37.773Z,14.07
2023-06-29T00:18:07.285Z,12.45
2023-06-29T00:20:36.826Z,11.65
2023-06-29T00:23:04.948Z,12.65
2023-06-29T00:25:33.625Z,12.43
2023-06-29T00:28:01.954Z,12.73
2023-06-29T00:30:30.361Z,12.55
2023-06-29T00:32:58.456Z,12.65
2023-06-29T00:35:27.909Z,12.07
2023-06-29T00:37:56.135Z,12.02
2023-06-29T00:40:24.622Z,11.85
2023-06-29T00:42:52.737Z,11.75
2023-06-29T00:45:21.293Z,11.85
2023-06-29T00:47:49.490Z,24.45
2023-06-29T00:50:18.204Z,12.65
2023-06-29T00:52:47.820Z,12.30
2023-06-29T00:55:15.917Z,11.95
2023-06-29T00:57:44.118Z,12.52
2023-06-29T01:00:13.919Z,12.50
2023-06-29T01:02:42.873Z,11.68
2023-06-29T01:05:12.504Z,12.77
2023-06-29T01:07:46.506Z,11.45
2023-06-29T01:10:19.650Z,12.15
2023-06-29T01:12:51.157Z,11.98
2023-06-29T01:15:20.554Z,12.30
2023-06-29T01:17:50.781Z,13.57
2023-06-29T01:20:20.941Z,11.98
2023-06-29T01:22:58.221Z,12.65
2023-06-29T01:25:29.021Z,13.13
2023-06-29T01:27:57.390Z,11.95
2023-06-29T01:30:25.949Z,14.50
2023-06-29T01:32:54.431Z,14.55
2023-06-29T01:35:22.859Z,10.90
2023-06-29T01:37:57.988Z,13.52
2023-06-29T01:40:30.281Z,12.30
2023-06-29T01:42:59.242Z,12.25
2023-06-29T01:45:28.239Z,11.82
2023-06-29T01:47:58.067Z,13.27
2023-06-29T01:50:27.024Z,15.00
2023-06-29T01:52:55.088Z,13.23
2023-06-29T01:55:23.550Z,12.15
2023-06-29T01:57:53.157Z,12.68
2023-06-29T02:00:22.127Z,13.15
2023-06-29T02:02:50.924Z,12.63
2023-06-29T02:05:20.423Z,12.90
2023-06-29T02:07:48.809Z,11.38
2023-06-29T02:10:17.122Z,14.52
2023-06-29T02:12:45.269Z,14.20
2023-06-29T02:15:14.804Z,12.88
2023-06-29T02:17:43.212Z,13.73
2023-06-29T02:20:12.068Z,15.18
2023-06-29T02:22:40.641Z,12.82
2023-06-29T02:25:12.351Z,13.32
2023-06-29T02:27:40.866Z,12.60
2023-06-29T02:30:10.139Z,13.10
2023-06-29T02:32:39.865Z,13.18
2023-06-29T02:35:08.724Z,13.55
2023-06-29T02:37:37.093Z,12.48
2023-06-29T02:40:06.588Z,13.20
2023-06-29T02:42:34.828Z,12.98
2023-06-29T02:45:03.017Z,13.18
2023-06-29T02:47:32.017Z,13.10
2023-06-29T02:50:01.569Z,14.25
2023-06-29T02:52:29.658Z,14.60
2023-06-29T02:54:57.701Z,12.85
2023-06-29T02:57:25.779Z,14.10
2023-06-29T02:59:54.131Z,13.85
2023-06-29T03:02:22.566Z,12.88
2023-06-29T03:04:50.632Z,13.27
2023-06-29T03:07:20.122Z,13.45
2023-06-29T03:09:48.410Z,13.80
2023-06-29T03:12:16.990Z,13.32
2023-06-29T03:14:45.309Z,14.48
2023-06-29T03:17:14.647Z,13.40
2023-06-29T03:19:43.228Z,13.50
2023-06-29T03:22:11.644Z,15.18
2023-06-29T03:24:41.038Z,14.65
2023-06-29T03:27:09.601Z,13.43
2023-06-29T03:29:38.116Z,14.38
2023-06-29T03:32:07.172Z,14.70
2023-06-29T03:34:35.289Z,13.40
2023-06-29T03:37:04.086Z,15.32
2023-06-29T03:39:32.470Z,14.82
2023-06-29T03:42:02.165Z,14.50
2023-06-29T03:44:30.557Z,13.52
2023-06-29T03:46:59.063Z,14.68
2023-06-29T03:49:27.491Z,13.95
2023-06-29T03:51:55.980Z,13.65
2023-06-29T03:54:24.321Z,14.45
2023-06-29T03:56:52.394Z,13.82
2023-06-29T03:59:21.963Z,14.88
2023-06-29T04:01:50.195Z,15.48
2023-06-29T04:04:18.595Z,14.40
2023-06-29T04:06:47.106Z,14.18
2023-06-29T04:09:15.276Z,14.75
2023-06-29T04:11:43.734Z,15.98
2023-06-29T04:14:12.292Z,14.75
2023-06-29T04:16:42.413Z,14.23
2023-06-29T04:19:11.336Z,14.88
2023-06-29T04:21:39.408Z,15.57
2023-06-29T04:24:07.860Z,14.38
2023-06-29T04:26:36.187Z,15.75
2023-06-29T04:29:07.098Z,16.77
2023-06-29T04:31:35.372Z,15.70
2023-06-29T04:34:04.856Z,13.68
2023-06-29T04:36:33.491Z,13.18
2023-06-29T04:39:02.225Z,13.68
2023-06-29T04:41:33.735Z,18.65
2023-06-29T04:44:03.012Z,15.70
2023-06-29T04:46:32.289Z,15.07
2023-06-29T04:49:07.851Z,14.15
2023-06-29T04:51:38.573Z,15.75
2023-06-29T04:54:07.568Z,15.60
2023-06-29T04:56:35.663Z,14.50
2023-06-29T04:59:03.834Z,15.07
2023-06-29T05:01:32.057Z,15.23
2023-06-29T05:04:02.653Z,13.18
2023-06-29T05:06:31.569Z,13.20
2023-06-29T05:09:01.055Z,13.27
2023-06-29T05:11:29.183Z,13.85
2023-06-29T05:13:57.682Z,14.95
2023-06-29T05:16:25.883Z,12.82
2023-06-29T05:18:54.146Z,13.65
2023-06-29T05:21:22.809Z,13.98
2023-06-29T05:23:51.180Z,13.43
2023-06-29T05:26:20.618Z,13.07
2023-06-29T05:29:03.800Z,14.60
2023-06-29T05:31:33.699Z,14.73
2023-06-29T05:34:01.975Z,12.68
2023-06-29T05:36:30.584Z,13.18
2023-06-29T05:38:58.888Z,13.52
2023-06-29T05:41:28.471Z,13.02
2023-06-29T05:43:56.811Z,13.52
2023-06-29T05:46:25.189Z,15.57
2023-06-29T05:48:53.231Z,13.32
2023-06-29T05:51:21.364Z,15.77
2023-06-29T05:53:49.426Z,13.95
2023-06-29T05:56:17.665Z,12.15
2023-06-29T05:58:48.350Z,12.70
2023-06-29T06:01:16.638Z,13.07
2023-06-29T06:03:44.780Z,12.32
2023-06-29T06:06:13.036Z,11.85
2023-06-29T06:08:41.113Z,11.80
2023-06-29T06:11:09.277Z,12.65
2023-06-29T06:13:37.483Z,13.02
2023-06-29T06:16:07.260Z,13.98
2023-06-29T06:18:35.468Z,12.30
2023-06-29T06:21:04.352Z,13.63
2023-06-29T06:23:34.329Z,12.73
2023-06-29T06:26:03.434Z,13.02
2023-06-29T06:28:31.629Z,12.50
2023-06-29T06:30:59.748Z,12.45
2023-06-29T06:33:31.328Z,14.45
2023-06-29T06:36:00.012Z,12.60
2023-06-29T06:38:44.697Z,13.20
2023-06-29T06:41:13.104Z,12.32
2023-06-29T06:43:41.163Z,13.18
2023-06-29T06:46:09.298Z,13.10
2023-06-29T06:48:39.051Z,13.00
2023-06-29T06:51:07.142Z,12.27
2023-06-29T06:53:35.259Z,12.80
2023-06-29T06:56:03.340Z,12.63
2023-06-29T06:58:31.764Z,17.80
2023-06-29T07:00:59.880Z,16.00
2023-06-29T07:03:28.143Z,12.32
2023-06-29T07:05:59.209Z,13.75
2023-06-29T07:08:28.889Z,12.75
2023-06-29T07:10:57.009Z,12.55
2023-06-29T07:13:25.441Z,13.30
2023-06-29T07:15:53.601Z,14.52
2023-06-29T07:18:22.449Z,13.48
2023-06-29T07:25:54.452Z,12.95
2023-06-29T07:28:22.536Z,13.43
2023-06-29T07:30:52.001Z,12.27
2023-06-29T07:33:20.216Z,11.20
2023-06-29T07:35:48.645Z,12.35
2023-06-29T07:38:16.767Z,13.77
2023-06-29T07:40:48.655Z,12.75
2023-06-29T07:43:17.947Z,13.57
2023-06-29T07:45:46.620Z,14.70
2023-06-29T07:48:15.299Z,12.43
2023-06-29T07:50:44.325Z,12.27
2023-06-29T07:53:12.458Z,11.95
2023-06-29T07:55:40.578Z,12.93
2023-06-29T08:00:40.932Z,12.32
2023-06-29T08:03:09.440Z,12.40
2023-06-29T08:08:08.540Z,14.38
2023-06-29T08:10:36.709Z,12.65
2023-06-29T08:13:06.164Z,13.35
2023-06-29T08:15:35.845Z,12.07
2023-06-29T08:18:04.028Z,13.00
2023-06-29T08:20:32.156Z,11.65
2023-06-29T08:23:00.234Z,13.02
2023-06-29T08:25:28.636Z,11.32
2023-06-29T08:27:56.761Z,11.77
2023-06-29T08:30:24.954Z,12.70
2023-06-29T08:32:54.557Z,11.32
2023-06-29T08:35:22.849Z,11.77
2023-06-29T08:37:51.406Z,13.18
2023-06-29T08:40:22.696Z,12.90
2023-06-29T08:42:50.987Z,12.85
2023-06-29T08:45:19.529Z,12.40
2023-06-29T08:47:52.628Z,12.10
2023-06-29T08:50:27.738Z,11.98
2023-06-29T08:52:56.715Z,11.57
2023-06-29T08:55:26.045Z,13.10
2023-06-29T08:57:55.492Z,13.05
2023-06-29T09:00:25.841Z,12.57
2023-06-29T09:02:56.550Z,13.13
2023-06-29T09:05:26.683Z,12.15
2023-06-29T09:07:55.269Z,13.43
2023-06-29T09:10:23.750Z,11.73
2023-06-29T09:12:53.375Z,13.75
2023-06-29T09:15:22.953Z,10.65
2023-06-29T09:17:56.874Z,12.48
2023-06-29T09:20:28.649Z,13.13
2023-06-29T09:22:56.842Z,12.60
2023-06-29T09:25:34.894Z,12.75
2023-06-29T09:28:05.131Z,12.48
2023-06-29T09:30:38.326Z,12.23
2023-06-29T09:33:11.177Z,10.60
2023-06-29T09:35:42.603Z,12.55
2023-06-29T09:38:10.622Z,12.00
2023-06-29T09:40:49.580Z,12.07
2023-06-29T09:43:18.816Z,12.10
2023-06-29T09:45:47.131Z,11.85
2023-06-29T09:50:53.031Z,11.02
2023-06-29T09:53:30.029Z,11.93
2023-06-29T09:56:00.855Z,10.18
2023-06-29T09:58:29.670Z,10.55
2023-06-29T10:00:59.689Z,11.50
2023-06-29T10:03:29.430Z,11.32
2023-06-29T10:06:05.516Z,11.18
2023-06-29T10:08:36.778Z,12.63
2023-06-29T10:11:07.161Z,11.80
2023-06-29T10:13:39.857Z,14.07
2023-06-29T10:16:12.615Z,12.15
2023-06-29T10:18:45.320Z,13.65
2023-06-29T10:21:15.475Z,11.70
2023-06-29T10:23:45.247Z,9.38
2023-06-29T10:26:14.505Z,10.43
2023-06-29T10:28:43.450Z,11.07
2023-06-29T10:31:11.717Z,9.60
2023-06-29T10:33:49.443Z,9.20
2023-06-29T10:36:19.712Z,9.32
2023-06-29T10:38:47.989Z,9.10
2023-06-29T10:41:29.400Z,9.85
2023-06-29T10:43:59.237Z,8.63
2023-06-29T10:46:46.578Z,10.20
2023-06-29T10:49:24.891Z,8.48
2023-06-29T10:51:55.225Z,8.25
2023-06-29T10:54:24.652Z,8.93
2023-06-29T10:57:00.433Z,9.18
2023-06-29T10:59:29.145Z,8.18
2023-06-29T11:01:57.768Z,10.00
2023-06-29T11:04:26.325Z,9.10
2023-06-29T11:06:56.055Z,7.57
2023-06-29T11:09:24.354Z,9.15
2023-06-29T11:11:52.489Z,9.50
2023-06-29T11:14:20.966Z,8.73
2023-06-29T11:16:49.521Z,8.77
2023-06-29T11:19:18.315Z,9.20
2023-06-29T11:21:46.474Z,9.20
2023-06-29T11:24:20.021Z,9.88
2023-06-29T11:26:48.436Z,11.25
2023-06-29T11:29:16.528Z,8.55
2023-06-29T11:31:44.685Z,10.63
2023-06-29T11:34:15.262Z,9.57
2023-06-29T11:36:52.797Z,8.73
2023-06-29T11:39:33.156Z,10.35
2023-06-29T11:42:01.923Z,9.77
2023-06-29T11:44:30.189Z,9.13
2023-06-29T11:47:12.081Z,9.27
2023-06-29T11:49:51.252Z,8.80
2023-06-29T11:52:19.843Z,10.38
2023-06-29T11:54:49.353Z,9.18
2023-06-29T11:57:19.592Z,10.23
2023-06-29T11:59:48.063Z,10.07
2023-06-29T12:02:16.942Z,8.88
2023-06-29T12:04:58.618Z,10.20
2023-06-29T12:07:37.796Z,9.95
2023-06-29T12:10:10.348Z,11.00
2023-06-29T12:12:39.440Z,9.75
2023-06-29T12:15:17.719Z,10.20
2023-06-29T12:20:18.739Z,10.52
2023-06-29T12:22:49.244Z,11.55
2023-06-29T12:25:20.071Z,11.75
2023-06-29T12:27:49.804Z,9.82
2023-06-29T12:30:21.806Z,10.70
2023-06-29T12:32:50.802Z,10.95
2023-06-29T12:35:20.097Z,10.32
2023-06-29T12:37:48.202Z,10.13
2023-06-29T12:40:17.162Z,10.23
2023-06-29T12:42:46.805Z,11.52
2023-06-29T12:45:14.998Z,11.13
2023-06-29T12:47:43.639Z,11.75
2023-06-29T12:50:12.564Z,11.10
2023-06-29T12:52:40.742Z,10.45
2023-06-29T12:55:09.548Z,11.68
2023-06-29T12:57:39.699Z,11.60
2023-06-29T13:00:11.044Z,12.30
2023-06-29T13:02:39.442Z,12.55
2023-06-29T13:05:07.949Z,12.43
2023-06-29T13:07:36.996Z,11.80
2023-06-29T13:10:06.271Z,11.07
2023-06-29T13:12:34.382Z,10.38
2023-06-29T13:15:02.416Z,11.82
2023-06-29T13:17:31.838Z,12.90
2023-06-29T13:20:00.071Z,12.35
2023-06-29T13:22:28.312Z,11.32
2023-06-29T13:24:56.487Z,11.75
2023-06-29T13:27:24.834Z,11.80
2023-06-29T13:29:52.871Z,12.57
2023-06-29T13:32:20.896Z,13.50
2023-06-29T13:34:50.445Z,12.35
2023-06-29T13:37:19.842Z,13.88
2023-06-29T13:39:49.381Z,10.35
2023-06-29T13:42:18.012Z,11.10
2023-06-29T13:44:47.057Z,10.88
2023-06-29T13:47:23.376Z,11.25
2023-06-29T13:49:53.050Z,12.18
2023-06-29T13:52:21.533Z,11.30
2023-06-29T13:54:49.900Z,11.90
2023-06-29T13:57:17.993Z,12.02
2023-06-29T13:59:48.079Z,12.35
2023-06-29T14:02:16.441Z,11.65
2023-06-29T14:04:44.803Z,10.48
2023-06-29T14:07:16.144Z,12.00
2023-06-29T14:09:44.424Z,10.50
2023-06-29T14:12:12.607Z,10.43
2023-06-29T14:14:41.933Z,11.23
2023-06-29T14:17:09.976Z,11.23
2023-06-29T14:19:38.056Z,10.23
2023-06-29T14:22:07.380Z,11.23
2023-06-29T14:24:36.763Z,10.65
2023-06-29T14:27:05.392Z,10.90
2023-06-29T14:29:33.439Z,10.73
2023-06-29T14:32:01.507Z,10.60
2023-06-29T14:34:29.682Z,11.70
2023-06-29T14:36:57.766Z,10.65
2023-06-29T14:39:25.824Z,11.63
2023-06-29T14:41:56.685Z,13.05
2023-06-29T14:44:25.500Z,16.92
2023-06-29T14:46:53.658Z,15.10
2023-06-29T14:49:21.702Z,13.65
2023-06-29T14:51:49.785Z,14.05
2023-06-29T14:54:19.681Z,20.80
2023-06-29T14:56:47.837Z,13.93
2023-06-29T14:59:17.458Z,14.02
2023-06-29T15:01:45.723Z,13.88
2023-06-29T15:04:13.903Z,15.30
2023-06-29T15:06:43.301Z,16.73
2023-06-29T15:09:11.465Z,15.18
2023-06-29T15:11:39.638Z,13.35
2023-06-29T15:14:07.741Z,14.88
2023-06-29T15:16:37.241Z,14.45
2023-06-29T15:19:05.381Z,15.10
2023-06-29T15:21:33.499Z,15.57
2023-06-29T15:24:02.723Z,19.15
2023-06-29T15:26:30.912Z,15.38
2023-06-29T15:28:59.220Z,16.55
2023-06-29T15:31:27.790Z,16.15
2023-06-29T15:33:57.237Z,19.83
2023-06-29T15:36:25.494Z,16.27
2023-06-29T15:38:53.603Z,17.00
2023-06-29T15:41:21.735Z,16.83
2023-06-29T15:43:50.060Z,16.00
2023-06-29T15:46:18.659Z,17.63
2023-06-29T15:48:46.870Z,18.25
2023-06-29T15:51:16.605Z,17.63
2023-06-29T15:53:44.677Z,16.08
2023-06-29T15:56:12.802Z,17.15
2023-06-29T15:58:42.218Z,18.70
2023-06-29T16:01:10.524Z,16.45
2023-06-29T16:03:39.655Z,19.13
2023-06-29T16:06:07.900Z,16.98
2023-06-29T16:08:37.524Z,16.58
2023-06-29T16:11:05.686Z,17.17
2023-06-29T16:13:33.835Z,17.42
2023-06-29T16:16:02.135Z,17.13
2023-06-29T16:18:30.398Z,18.27
2023-06-29T16:20:58.500Z,17.48
2023-06-29T16:23:26.644Z,17.58
2023-06-29T16:25:57.082Z,17.17
2023-06-29T16:28:25.234Z,19.42
2023-06-29T16:30:53.477Z,18.25
2023-06-29T16:33:21.763Z,16.55
2023-06-29T16:35:49.905Z,17.60
2023-06-29T16:38:17.983Z,18.25
2023-06-29T16:40:47.115Z,17.63
2023-06-29T16:43:17.181Z,17.58
2023-06-29T16:45:46.876Z,18.90
2023-06-29T16:48:15.430Z,21.17
2023-06-29T16:50:43.589Z,17.88
2023-06-29T16:53:11.733Z,19.48
2023-06-29T16:55:39.884Z,19.45
2023-06-29T16:58:07.983Z,19.95
2023-06-29T17:00:37.598Z,17.23
2023-06-29T17:03:05.815Z,18.63
2023-06-29T17:05:34.025Z,18.33
2023-06-29T17:08:02.478Z,18.13
2023-06-29T17:10:30.530Z,20.15
2023-06-29T17:12:58.645Z,18.55
2023-06-29T17:15:26.734Z,21.50
2023-06-29T17:17:56.324Z,22.70
2023-06-29T17:20:24.550Z,23.95
2023-06-29T17:22:52.581Z,20.48
2023-06-29T17:25:20.655Z,17.63
2023-06-29T17:27:48.847Z,21.50
2023-06-29T17:30:17.124Z,22.38
2023-06-29T17:32:45.309Z,19.55
2023-06-29T17:35:15.032Z,20.92
2023-06-29T17:37:43.256Z,20.13
2023-06-29T17:40:11.649Z,21.20
2023-06-29T17:42:39.913Z,20.80
2023-06-29T17:45:09.789Z,20.90
2023-06-29T17:47:37.918Z,20.98
2023-06-29T17:50:06.842Z,20.42
2023-06-29T17:52:36.646Z,26.10
2023-06-29T17:55:05.974Z,22.33
2023-06-29T17:57:34.237Z,22.85
2023-06-29T18:00:04.281Z,24.25
2023-06-29T18:02:32.599Z,23.48
2023-06-29T18:05:00.851Z,23.75
2023-06-29T18:07:29.259Z,20.27
2023-06-29T18:10:00.452Z,21.00
2023-06-29T18:12:28.670Z,20.15
2023-06-29T18:14:57.275Z,25.45
2023-06-29T18:17:25.354Z,22.95
2023-06-29T18:19:53.459Z,20.50
2023-06-29T18:22:21.571Z,24.60
2023-06-29T18:24:49.801Z,23.23
2023-06-29T18:27:19.246Z,21.95
2023-06-29T18:29:47.461Z,25.13
2023-06-29T18:32:15.844Z,24.67
2023-06-29T18:34:44.294Z,24.05
2023-06-29T18:37:12.369Z,21.95
2023-06-29T18:39:40.427Z,30.08
2023-06-29T18:42:09.597Z,21.88
2023-06-29T18:44:39.832Z,26.70
2023-06-29T18:47:11.244Z,21.33
2023-06-29T18:52:11.958Z,23.08
2023-06-29T18:54:40.144Z,21.73
2023-06-29T18:57:11.369Z,23.80
2023-06-29T18:59:43.325Z,21.33
2023-06-29T19:02:11.892Z,21.67
2023-06-29T19:04:40.034Z,22.48
2023-06-29T19:07:08.573Z,22.95
2023-06-29T19:09:36.711Z,23.75
2023-06-29T19:12:05.313Z,23.13
2023-06-29T19:14:33.483Z,23.52
2023-06-29T19:17:03.322Z,25.25
2023-06-29T19:19:31.547Z,24.83
2023-06-29T19:21:59.548Z,24.10
2023-06-29T19:24:27.631Z,24.42
2023-06-29T19:26:55.770Z,28.95
2023-06-29T19:29:25.398Z,23.52
2023-06-29T19:31:53.706Z,23.30
2023-06-29T19:34:23.163Z,22.20
2023-06-29T19:36:51.322Z,23.83
2023-06-29T19:39:20.279Z,24.35
2023-06-29T19:41:48.557Z,25.17
2023-06-29T19:44:16.601Z,22.63
2023-06-29T19:46:46.628Z,23.08
2023-06-29T19:49:14.750Z,24.17
2023-06-29T19:51:44.201Z,21.85
2023-06-29T19:54:12.708Z,23.92
2023-06-29T19:56:40.961Z,26.35
2023-06-29T19:59:09.170Z,25.27
2023-06-29T20:01:37.371Z,21.38
2023-06-29T20:04:06.045Z,21.10
2023-06-29T20:06:34.226Z,23.67
2023-06-29T20:09:04.511Z,22.63
2023-06-29T20:11:32.644Z,22.27
2023-06-29T20:14:01.002Z,21.20
2023-06-29T20:16:29.677Z,23.83
2023-06-29T20:18:58.318Z,23.90
2023-06-29T20:21:26.744Z,22.73
2023-06-29T20:23:54.872Z,24.27
2023-06-29T20:26:24.424Z,24.67
2023-06-29T20:28:52.550Z,23.60
2023-06-29T20:31:20.643Z,26.30
2023-06-29T20:33:48.849Z,26.83
2023-06-29T20:36:17.465Z,25.88
2023-06-29T20:38:45.705Z,24.77
2023-06-29T20:41:14.360Z,25.70
2023-06-29T20:43:47.309Z,22.20
2023-06-29T20:46:16.327Z,23.27
2023-06-29T20:48:44.659Z,25.25
2023-06-29T20:51:18.244Z,30.05
2023-06-29T20:53:46.784Z,26.80
2023-06-29T20:56:14.871Z,32.60
2023-06-29T20:58:44.295Z,32.33
2023-06-29T21:03:44.900Z,29.45
2023-06-29T21:06:13.575Z,30.33
2023-06-29T21:08:42.046Z,31.60
2023-06-29T21:11:10.464Z,23.40
2023-06-29T21:13:39.105Z,30.42
2023-06-29T21:16:09.437Z,29.33
2023-06-29T21:18:38.285Z,29.90
2023-06-29T21:21:10.891Z,37.03
2023-06-29T21:23:39.376Z,31.52
2023-06-29T21:26:07.966Z,31.75
2023-06-29T21:28:37.262Z,31.80
2023-06-29T21:31:05.880Z,33.10
2023-06-29T21:33:36.961Z,32.38
2023-06-29T21:36:07.207Z,34.35
2023-06-29T21:38:36.315Z,39.75
2023-06-29T21:41:04.357Z,32.33
2023-06-29T21:43:32.648Z,27.58
2023-06-29T21:46:00.828Z,30.25
2023-06-29T21:48:28.916Z,31.08
2023-06-29T21:50:58.389Z,32.13
2023-06-29T21:53:26.499Z,32.50
2023-06-29T21:55:55.937Z,31.10
2023-06-29T21:58:26.808Z,28.52
2023-06-29T22:00:55.044Z,26.02
2023-06-29T22:03:38.572Z,28.60
2023-06-29T22:06:08.154Z,29.30
2023-06-29T22:08:36.211Z,30.23
2023-06-29T22:11:04.908Z,29.02
2023-06-29T22:13:33.032Z,27.48
2023-06-29T22:16:01.107Z,25.60
2023-06-29T22:18:29.301Z,29.45
2023-06-29T22:20:57.870Z,28.70
2023-06-29T22:23:27.392Z,27.85
2023-06-29T22:25:55.621Z,30.92
2023-06-29T22:28:24.415Z,28.42
2023-06-29T22:30:52.595Z,28.95
2023-06-29T22:33:20.770Z,28.48
2023-06-29T22:35:49.328Z,21.85
2023-06-29T22:38:17.732Z,19.30
2023-06-29T22:40:47.309Z,18.73
2023-06-29T22:43:15.422Z,17.90
2023-06-29T22:45:43.674Z,21.33
2023-06-29T22:48:11.899Z,17.13
2023-06-29T22:50:39.970Z,19.80
2023-06-29T22:53:08.035Z,17.95
2023-06-29T22:55:36.149Z,21.55
2023-06-29T22:58:05.585Z,20.38
2023-06-29T23:00:33.797Z,21.88
2023-06-29T23:03:02.151Z,21.23
2023-06-29T23:05:30.656Z,21.83
2023-06-29T23:07:58.759Z,21.20
2023-06-29T23:10:28.592Z,20.63
2023-06-29T23:12:56.982Z,20.27
2023-06-29T23:15:27.313Z,21.00
2023-06-29T23:17:55.599Z,21.13
2023-06-29T23:20:28.358Z,22.20
2023-06-29T23:22:58.369Z,20.83
2023-06-29T23:25:27.090Z,21.13
2023-06-29T23:27:55.458Z,25.02
2023-06-29T23:30:23.509Z,20.10
2023-06-29T23:32:53.187Z,20.63
2023-06-29T23:35:22.153Z,22.80
2023-06-29T23:37:50.219Z,21.17
2023-06-29T23:40:18.395Z,18.98
2023-06-29T23:42:46.659Z,19.83
2023-06-29T23:45:15.251Z,19.08
2023-06-29T23:47:43.430Z,18.17
2023-06-29T23:50:14.267Z,17.70
2023-06-29T23:52:43.445Z,17.90
2023-06-29T23:55:13.499Z,21.08
2023-06-29T23:57:42.587Z,16.52
